Flight Track Log - Related Links

Times and Time Zones

All times are in EST time to prevent confusion due to time zone crossing. See the N53NW flight status page for this flight to view local times or setup timezone preferences in your user account.

Time Position Orientation Groundspeed Altitude Reporting Facility
EST Latitude Longitude Course Direction KTS MPH feet Rate Location/Type
Wed 02:32:01 PM 26.7631 -79.9975 336° Northwest 294 338 7,000  Level Miami Center
Wed 02:33:01 PM 26.8228 -80.0389 328° Northwest 258 297 9,900 2,500 Climbing Miami Center
Wed 02:34:01 PM 26.8275 -80.1133 274° West 223 257 12,000 1,600 Climbing Miami Center
Wed 02:35:01 PM 26.8403 -80.1906 281° West 240 276 13,100 1,050 Climbing Miami Center
Wed 02:36:00 PM 26.9160 -80.3497 336° Northwest  Level FlightAware Approximate
Wed 02:36:01 PM 26.8550 -80.2794 281° West 265 305 14,100  Level Miami Center
Wed 02:37:01 PM 26.8931 -80.3481 302° West 265 305 15,100 2,067 Climbing Miami Center
Wed 02:39:01 PM 27.0436 -80.4203 337° Northwest 275 316 20,300 2,467 Climbing Miami Center
Wed 02:40:01 PM 27.1219 -80.4575 337° Northwest 290 334 22,500 2,100 Climbing Miami Center
Wed 02:41:01 PM 27.1981 -80.5067 330° Northwest 303 349 24,500 2,000 Climbing Miami Center
Wed 02:42:01 PM 27.2675 -80.5650 323° Northwest 313 360 26,500 2,000 Climbing Miami Center
Wed 02:43:01 PM 27.3522 -80.6075 336° Northwest 320 368 28,500 2,000 Climbing Miami Center
Wed 02:44:01 PM 27.4389 -80.6406 341° North 326 375 30,500 1,850 Climbing Miami Center
Wed 02:45:01 PM 27.5278 -80.6739 342° North 326 375 32,200 1,600 Climbing Miami Center
Wed 02:46:01 PM 27.6189 -80.7075 342° North 326 375 33,700 1,350 Climbing Miami Center
Wed 02:47:01 PM 27.7097 -80.7411 342° North 331 381 34,900 1,200 Climbing Miami Center
Wed 02:48:01 PM 27.8006 -80.7769 341° North 343 395 36,100 1,150 Climbing Miami Center
Wed 02:49:01 PM 27.8894 -80.8058 344° North 354 407 37,200 1,150 Climbing Miami Center
Wed 02:50:01 PM 27.9844 -80.8422 341° North 361 415 38,400 900 Climbing Miami Center
Wed 02:51:01 PM 28.0797 -80.8761 343° North 361 415 39,000 300 Climbing Miami Center
Wed 02:52:01 PM 28.1850 -80.9150 342° North 372 428 39,000  Level Miami Center
Wed 02:53:01 PM 28.2881 -80.9567 340° North 385 443 39,000  Level Miami Center
Wed 02:54:01 PM 28.3933 -80.9958 342° North 392 451 39,000  Level Miami Center
Wed 02:55:01 PM 28.4986 -81.0375 341° North 398 458 39,000  Level Miami Center
Wed 02:56:01 PM 28.6058 -81.0769 342° North 398 458 39,000  Level Miami Center
Wed 02:57:01 PM 28.7194 -81.1214 341° North 398 458 39,000  Level Miami Center
Wed 02:58:11 PM 28.8478 -81.1528 348° North 395 455 39,000  Level Jacksonville Center
Wed 02:59:11 PM 28.9608 -81.1792 348° North 400 460 39,000  Level Jacksonville Center
Wed 03:00:11 PM 29.0739 -81.2058 348° North 400 460 39,000  Level Jacksonville Center
Wed 03:01:11 PM 29.1847 -81.2325 348° North 413 475 39,000  Level Jacksonville Center
Wed 03:02:11 PM 29.2958 -81.2592 348° North 407 468 39,000  Level Jacksonville Center
Wed 03:03:11 PM 29.4089 -81.2833 349° North 412 474 39,000  Level Jacksonville Center
Wed 03:04:11 PM 29.5050 -81.3106 346° North 412 474 39,000  Level Jacksonville Center
Wed 03:05:11 PM 29.6183 -81.3372 348° North 412 474 39,000 -150 Level Jacksonville Center
Wed 03:06:11 PM 29.7353 -81.3497 355° North 412 474 38,700 -650 Descending Jacksonville Center
Wed 03:07:11 PM 29.8544 -81.3575 357° North 419 482 37,700 -1,000 Descending Jacksonville Center
Wed 03:08:11 PM 29.9756 -81.3628 358° North 424 488 36,700 -1,000 Descending Jacksonville Center
Wed 03:09:11 PM 30.0925 -81.3706 357° North 424 488 35,700 -1,200 Descending Jacksonville Center
Wed 03:10:11 PM 30.2136 -81.3758 358° North 424 488 34,300 -1,200 Descending Jacksonville Center
Wed 03:11:11 PM 30.3328 -81.3836 357° North 424 488 33,300 -650 Descending Jacksonville Center
Wed 03:12:11 PM 30.4372 -81.3892 357° North 419 482 33,000 -150 Descending Jacksonville Center
Wed 03:13:11 PM 30.5731 -81.3967 357° North 414 476 33,000  Level Jacksonville Center
Wed 03:14:11 PM 30.6858 -81.4022 358° North 408 470 33,000  Level Jacksonville Center
Wed 03:15:11 PM 30.8008 -81.4100 357° North 408 470 33,000  Level Jacksonville Center
Wed 03:16:11 PM 30.9156 -81.4178 357° North 408 470 33,000  Level Jacksonville Center
Wed 03:17:11 PM 31.0286 -81.4233 358° North 403 464 33,000 -350 Level Jacksonville Center
Wed 03:18:11 PM 31.1414 -81.4289 358° North 403 464 32,300 -1,050 Descending Jacksonville Center
Wed 03:19:11 PM 31.2519 -81.4319 359° North 403 464 30,900 -1,300 Descending Jacksonville Center
Wed 03:20:11 PM 31.3519 -81.4111 10° North 398 458 29,700 -1,350 Descending Jacksonville Center
Wed 03:21:11 PM 31.4686 -81.3825 12° North 393 452 28,200 -1,450 Descending Jacksonville Center
Wed 03:22:11 PM 31.5725 -81.3539 13° North 382 440 26,800 -1,350 Descending Jacksonville Center
Wed 03:23:11 PM 31.6661 -81.3281 13° North 382 440 25,500 -1,400 Descending Jacksonville Center
Wed 03:24:11 PM 31.7786 -81.2992 12° North 376 433 24,000 -1,400 Descending Jacksonville Center
Wed 03:25:11 PM 31.8703 -81.2756 12° North 369 425 22,700 -1,450 Descending Jacksonville Center
Wed 03:26:11 PM 31.9656 -81.2150 28° Northeast 364 419 21,100 -1,050 Descending Jacksonville Center
Wed 03:27:11 PM 32.0203 -81.1086 59° Northeast 350 403 20,600 -800 Descending Jacksonville Center
Wed 03:28:11 PM 32.0733 -81.0244 53° Northeast 358 412 19,500 -1,300 Descending Jacksonville Center
Wed 03:29:11 PM 32.1344 -80.9200 55° Northeast 353 406 18,000 -1,250 Descending Jacksonville Center
Wed 03:30:11 PM 32.1833 -80.8331 56° Northeast 347 399 17,000 -1,200 Descending Jacksonville Center
Wed 03:31:11 PM 32.2400 -80.7286 57° Northeast 347 399 15,600 -1,350 Descending Jacksonville Center
Wed 03:32:11 PM 32.2906 -80.6414 56° Northeast 328 377 14,300 -1,300 Descending Jacksonville Center
Wed 03:33:11 PM 32.3392 -80.5617 54° Northeast 312 359 13,000 -1,350 Descending Jacksonville Center
Wed 03:34:11 PM 32.3836 -80.4817 57° Northeast 299 344 11,600 -1,300 Descending Jacksonville Center
Wed 03:35:11 PM 32.4281 -80.3994 57° Northeast 291 335 10,400 -1,250 Descending Jacksonville Center
Wed 03:36:11 PM 32.4725 -80.3219 56° Northeast 284 327 9,100 -1,350 Descending Jacksonville Center
Wed 03:37:11 PM 32.5186 -80.2392 57° Northeast 284 327 7,700 -1,300 Descending Jacksonville Center
Wed 03:38:11 PM 32.5631 -80.1639 55° Northeast 284 327 6,500 -1,250 Descending Jacksonville Center
Wed 03:39:11 PM 32.6053 -80.0886 56° Northeast 284 327 5,200 -1,300 Descending Jacksonville Center
Wed 03:40:11 PM 32.6456 -80.0208 55° Northeast 273 314 3,900 -1,300 Descending Jacksonville Center
Wed 03:41:11 PM 32.6794 -79.9606 56° Northeast 248 285 2,600 -900 Descending Jacksonville Center
Wed 03:42:11 PM 32.7097 -79.9103 54° Northeast 210 242 2,100 -250 Descending Jacksonville Center
Wed 03:43:11 PM 32.7561 -79.9308 340° North 134 154 2,100  Level Jacksonville Center
Wed 03:45:00 PM 32.8833 -80.0333 328° Northwest  Level FlightAware Approximate
Wed 03:52:00 PM 32.8986 -80.0405 328° Northwest  Level Estimated
Wed 03:53:00 PM 32.8986 -80.0405 328° Northwest  Level Estimated
Wed 03:54:00 PM 32.8986 -80.0405 328° Northwest  Level Estimated
Wed 03:55:00 PM 32.8986 -80.0405 328° Northwest  Level Estimated

Login

Don't have an account? Register now (free) for customized features, flight alerts, and more!